Maersk Bali — 9V7499 — position and weather

sailwx.info

Track history (hours):
 
Tides and Currents Weather Stations Pressure Air Temp Water Temp Dewpoint Dewpoint Depression Visibility Wind Speed Wind Dir Waves Ship Positions

Maersk Bali

Last reported at 2017-Mar-24 18:33 UTC. Time now 2017-Mar-25 00:03 UTC.
Position N 35°60' W 005°17'.

Length 223 m; draft 11 m.

Type: Ship (hazmat cat A). MMSI: 563102000.

Date/timePositionNaut miles runAvg speedWind from/ knotsBaromVisibWave heightAir tempDewpointWater temp
2017-Mar-24 18:33N 35°60' W 005°17'16 1.0
2017-Mar-24 02:33N 35°53' W 005°35'5 0.5
2017-Mar-23 16:33N 35°58' W 005°33'8 8.0
2017-Mar-23 15:33N 36°02' W 005°24'7 6.7
2017-Mar-23 14:34N 36°08' W 005°26'0 0.1
2017-Mar-23 13:33N 36°08' W 005°26'0 0.0
2017-Mar-23 12:33N 36°08' W 005°26'0 0.0
2017-Mar-23 11:34N 36°08' W 005°26'0 0.0
2017-Mar-23 10:34N 36°08' W 005°26'0 0.0
2017-Mar-23 09:33N 36°08' W 005°26'0 0.0
2017-Mar-23 08:33N 36°08' W 005°26'0 0.0
2017-Mar-23 07:33N 36°08' W 005°26'0 0.0
2017-Mar-23 06:33N 36°08' W 005°26'0 0.0
2017-Mar-23 05:34N 36°08' W 005°26'0 0.0
2017-Mar-23 04:34N 36°08' W 005°26'0 0.0
2017-Mar-23 03:33N 36°08' W 005°26'0 0.0
2017-Mar-23 02:33N 36°08' W 005°26'0 0.0
2017-Mar-23 01:34N 36°08' W 005°26'0 0.0
2017-Mar-23 00:34N 36°08' W 005°26'0 0.0
2017-Mar-22 23:33N 36°08' W 005°26'0 0.0
2017-Mar-22 22:33N 36°08' W 005°26'0 0.4
2017-Mar-22 21:33N 36°09' W 005°26'5 4.7
2017-Mar-22 20:33N 36°05' W 005°22'3 3.1
2017-Mar-22 19:34N 36°05' W 005°19'1514.4
2017-Mar-22 18:33N 36°10' W 005°02'8 7.6
2017-Mar-22 17:34N 36°17' W 004°58'2 1.7
2017-Mar-22 16:32N 36°16' W 004°60'2 1.8
2017-Mar-22 15:31N 36°14' W 005°01'2 1.9
2017-Mar-22 14:33N 36°13' W 005°02'2 1.6
2017-Mar-22 13:34N 36°11' W 005°03'2 1.5
2017-Mar-22 12:33N 36°10' W 005°04'3 1.4
2017-Mar-22 10:32N 36°08' W 005°05'1 1.3
2017-Mar-22 09:33N 36°07' W 005°07'2 2.4
2017-Mar-22 08:33N 36°09' W 005°04'1111.1
2017-Mar-22 07:34N 36°18' W 004°57'0 0.3
2017-Mar-22 06:28N 36°18' W 004°58'1 1.4
2017-Mar-22 05:25N 36°16' W 004°58'1 1.2
2017-Mar-22 04:32N 36°15' W 004°59'1 1.1
2017-Mar-22 03:33N 36°15' W 004°59'2 1.4
2017-Mar-22 02:28N 36°13' W 005°00'4 1.1
2017-Mar-21 22:33N 36°09' W 005°02'1 1.0
2017-Mar-21 21:33N 36°09' W 005°04'1 1.4
2017-Mar-21 20:34N 36°10' W 005°03'7 6.0
2017-Mar-21 19:28N 36°15' W 004°57'10 1.3
2017-Mar-21 12:12N 36°07' W 005°04'1 1.4
2017-Mar-21 11:16N 36°06' W 005°05'1 1.3
2017-Mar-21 10:33N 36°06' W 005°06'10 6.9
2017-Mar-21 09:04N 36°01' W 005°17'1019.3
2017-Mar-21 08:33N 35°57' W 005°28'60817.3
2017-Mar-19 21:27N 35°58' W 017°59'1517.1
2017-Mar-19 20:33N 35°58' W 018°18'29217.2
2017-Mar-19 03:33N 35°60' W 024°19'1717.1
2017-Mar-19 02:33N 36°00' W 024°40'1717.1
2017-Mar-19 01:33N 36°00' W 025°01'1717.2
2017-Mar-19 00:33N 35°57' W 025°22'1817.0
2017-Mar-18 23:31N 35°54' W 025°44'1616.9
2017-Mar-18 22:33N 35°52' W 026°04'1917.0
2017-Mar-18 21:25N 35°49' W 026°27'  
Track history (hours):
 
Tides and Currents Weather Stations Pressure Air Temp Water Temp Dewpoint Dewpoint Depression Visibility Wind Speed Wind Dir Waves Ship Positions

Maersk Bali

Last reported at 2017-Mar-24 18:33 UTC. Time now 2017-Mar-25 00:03 UTC.
Position N 35°60' W 005°17'.

Length 223 m; draft 11 m.

Type: Ship (hazmat cat A). MMSI: 563102000.

Date/timePositionNaut miles runAvg speedWind from/ knotsBaromVisibWave heightAir tempDewpointWater temp
2017-Mar-24 18:33N 35°60' W 005°17'16 1.0
2017-Mar-24 02:33N 35°53' W 005°35'5 0.5
2017-Mar-23 16:33N 35°58' W 005°33'8 8.0
2017-Mar-23 15:33N 36°02' W 005°24'7 6.7
2017-Mar-23 14:34N 36°08' W 005°26'0 0.1
2017-Mar-23 13:33N 36°08' W 005°26'0 0.0
2017-Mar-23 12:33N 36°08' W 005°26'0 0.0
2017-Mar-23 11:34N 36°08' W 005°26'0 0.0
2017-Mar-23 10:34N 36°08' W 005°26'0 0.0
2017-Mar-23 09:33N 36°08' W 005°26'0 0.0
2017-Mar-23 08:33N 36°08' W 005°26'0 0.0
2017-Mar-23 07:33N 36°08' W 005°26'0 0.0
2017-Mar-23 06:33N 36°08' W 005°26'0 0.0
2017-Mar-23 05:34N 36°08' W 005°26'0 0.0
2017-Mar-23 04:34N 36°08' W 005°26'0 0.0
2017-Mar-23 03:33N 36°08' W 005°26'0 0.0
2017-Mar-23 02:33N 36°08' W 005°26'0 0.0
2017-Mar-23 01:34N 36°08' W 005°26'0 0.0
2017-Mar-23 00:34N 36°08' W 005°26'0 0.0
2017-Mar-22 23:33N 36°08' W 005°26'0 0.0
2017-Mar-22 22:33N 36°08' W 005°26'0 0.4
2017-Mar-22 21:33N 36°09' W 005°26'5 4.7
2017-Mar-22 20:33N 36°05' W 005°22'3 3.1
2017-Mar-22 19:34N 36°05' W 005°19'1514.4
2017-Mar-22 18:33N 36°10' W 005°02'8 7.6
2017-Mar-22 17:34N 36°17' W 004°58'2 1.7
2017-Mar-22 16:32N 36°16' W 004°60'2 1.8
2017-Mar-22 15:31N 36°14' W 005°01'2 1.9
2017-Mar-22 14:33N 36°13' W 005°02'2 1.6
2017-Mar-22 13:34N 36°11' W 005°03'2 1.5
2017-Mar-22 12:33N 36°10' W 005°04'3 1.4
2017-Mar-22 10:32N 36°08' W 005°05'1 1.3
2017-Mar-22 09:33N 36°07' W 005°07'2 2.4
2017-Mar-22 08:33N 36°09' W 005°04'1111.1
2017-Mar-22 07:34N 36°18' W 004°57'0 0.3
2017-Mar-22 06:28N 36°18' W 004°58'1 1.4
2017-Mar-22 05:25N 36°16' W 004°58'1 1.2
2017-Mar-22 04:32N 36°15' W 004°59'1 1.1
2017-Mar-22 03:33N 36°15' W 004°59'2 1.4
2017-Mar-22 02:28N 36°13' W 005°00'4 1.1
2017-Mar-21 22:33N 36°09' W 005°02'1 1.0
2017-Mar-21 21:33N 36°09' W 005°04'1 1.4
2017-Mar-21 20:34N 36°10' W 005°03'7 6.0
2017-Mar-21 19:28N 36°15' W 004°57'10 1.3
2017-Mar-21 12:12N 36°07' W 005°04'1 1.4
2017-Mar-21 11:16N 36°06' W 005°05'1 1.3
2017-Mar-21 10:33N 36°06' W 005°06'10 6.9
2017-Mar-21 09:04N 36°01' W 005°17'1019.3
2017-Mar-21 08:33N 35°57' W 005°28'60817.3
2017-Mar-19 21:27N 35°58' W 017°59'1517.1
2017-Mar-19 20:33N 35°58' W 018°18'29217.2
2017-Mar-19 03:33N 35°60' W 024°19'1717.1
2017-Mar-19 02:33N 36°00' W 024°40'1717.1
2017-Mar-19 01:33N 36°00' W 025°01'1717.2
2017-Mar-19 00:33N 35°57' W 025°22'1817.0
2017-Mar-18 23:31N 35°54' W 025°44'1616.9
2017-Mar-18 22:33N 35°52' W 026°04'1917.0
2017-Mar-18 21:25N 35°49' W 026°27'  

Dump ship's entire track history